createdAt,value
2016-10-02T00:00:06.224Z,13.7
2016-10-02T00:00:16.218Z,13.7
2016-10-02T00:00:26.212Z,13.6
2016-10-02T00:00:36.207Z,13.7
2016-10-02T00:00:46.203Z,13.6
2016-10-02T00:00:56.196Z,13.6
2016-10-02T00:01:06.192Z,13.6
2016-10-02T00:01:16.188Z,13.6
2016-10-02T00:01:26.180Z,13.6
2016-10-02T00:01:36.176Z,13.6
2016-10-02T00:01:46.170Z,13.6
2016-10-02T00:01:56.164Z,13.6
2016-10-02T00:02:06.159Z,13.6
2016-10-02T00:02:16.154Z,13.6
2016-10-02T00:02:26.149Z,13.6
2016-10-02T00:02:36.145Z,13.6
2016-10-02T00:02:46.138Z,13.5
2016-10-02T00:02:56.133Z,13.5
2016-10-02T00:03:06.129Z,13.5
2016-10-02T00:03:16.123Z,13.5
2016-10-02T00:03:26.118Z,13.5
2016-10-02T00:03:36.112Z,13.5
2016-10-02T00:03:46.106Z,13.5
2016-10-02T00:03:56.100Z,13.6
2016-10-02T00:04:06.096Z,13.5
2016-10-02T00:04:16.091Z,13.6
2016-10-02T00:04:26.085Z,13.5
2016-10-02T00:04:36.079Z,13.4
2016-10-02T00:04:46.075Z,13.5
2016-10-02T00:04:56.071Z,13.5
2016-10-02T00:05:06.066Z,13.5
2016-10-02T00:05:16.060Z,13.5
2016-10-02T00:05:26.054Z,13.5
2016-10-02T00:05:36.048Z,13.5
2016-10-02T00:05:46.044Z,13.6
2016-10-02T00:05:56.037Z,13.6
2016-10-02T00:06:06.033Z,13.5
2016-10-02T00:06:16.027Z,13.6
2016-10-02T00:06:26.021Z,13.5
2016-10-02T00:06:36.017Z,13.6
2016-10-02T00:06:46.011Z,13.6
2016-10-02T00:06:56.006Z,13.5
2016-10-02T00:07:06.002Z,13.4
2016-10-02T00:07:15.996Z,13.5
2016-10-02T00:07:25.990Z,13.6
2016-10-02T00:07:35.985Z,13.5
2016-10-02T00:07:45.981Z,13.5
2016-10-02T00:07:55.975Z,13.6
2016-10-02T00:08:05.969Z,13.5
2016-10-02T00:08:15.965Z,13.6
2016-10-02T00:08:25.960Z,13.5
2016-10-02T00:08:35.952Z,13.5
2016-10-02T00:08:45.948Z,13.5
2016-10-02T00:08:55.942Z,13.5
2016-10-02T00:09:05.937Z,13.5
2016-10-02T00:09:15.933Z,13.5
2016-10-02T00:09:25.927Z,13.6
2016-10-02T00:09:35.921Z,13.5
2016-10-02T00:09:45.917Z,13.6
2016-10-02T00:09:55.911Z,13.5
2016-10-02T00:10:05.907Z,13.5
2016-10-02T00:10:15.901Z,13.5
2016-10-02T00:10:25.896Z,13.5
2016-10-02T00:10:35.891Z,13.5
2016-10-02T00:10:45.885Z,13.6
2016-10-02T00:10:55.881Z,13.5
2016-10-02T00:11:05.874Z,13.5
2016-10-02T00:11:15.868Z,13.5
2016-10-02T00:11:25.864Z,13.5
2016-10-02T00:11:35.858Z,13.5
2016-10-02T00:11:45.853Z,13.5
2016-10-02T00:11:55.848Z,13.5
2016-10-02T00:12:05.842Z,13.5
2016-10-02T00:12:15.838Z,13.6
2016-10-02T00:12:25.833Z,13.6
2016-10-02T00:12:35.825Z,13.5
2016-10-02T00:12:45.821Z,13.6
2016-10-02T00:12:55.815Z,13.5
2016-10-02T00:13:05.811Z,13.4
2016-10-02T00:13:15.805Z,13.5
2016-10-02T00:13:25.800Z,13.6
2016-10-02T00:13:35.795Z,13.6
2016-10-02T00:13:45.792Z,13.5
2016-10-02T00:13:55.785Z,13.6
2016-10-02T00:14:05.780Z,13.5
2016-10-02T00:14:15.774Z,13.6
2016-10-02T00:14:25.769Z,13.5
2016-10-02T00:14:35.764Z,13.5
2016-10-02T00:14:45.758Z,13.5
2016-10-02T00:14:55.753Z,13.5
2016-10-02T00:15:05.749Z,13.5
2016-10-02T00:15:15.742Z,13.5
2016-10-02T00:15:25.738Z,13.5
2016-10-02T00:15:35.734Z,13.5
2016-10-02T00:15:45.727Z,13.4
2016-10-02T00:15:55.721Z,13.4
2016-10-02T00:16:05.715Z,13.4
2016-10-02T00:16:15.711Z,13.5
2016-10-02T00:16:25.706Z,13.4
2016-10-02T00:16:35.699Z,13.5
2016-10-02T00:16:45.695Z,13.4
2016-10-02T00:16:55.689Z,13.6
2016-10-02T00:17:05.684Z,13.5
2016-10-02T00:17:15.678Z,13.5
2016-10-02T00:17:25.673Z,13.5
2016-10-02T00:17:35.669Z,13.5
2016-10-02T00:17:45.664Z,13.4
2016-10-02T00:17:55.657Z,13.5
2016-10-02T00:18:05.652Z,13.5
2016-10-02T00:18:15.646Z,13.5
2016-10-02T00:18:25.641Z,13.4
2016-10-02T00:18:35.636Z,13.5
2016-10-02T00:18:45.631Z,13.4
2016-10-02T00:18:55.626Z,13.4
2016-10-02T00:19:05.621Z,13.5
2016-10-02T00:19:15.615Z,13.5
2016-10-02T00:19:25.610Z,13.4
2016-10-02T00:19:35.604Z,13.5
2016-10-02T00:19:45.600Z,13.5
2016-10-02T00:19:55.595Z,13.5
2016-10-02T00:20:05.589Z,13.6
2016-10-02T00:20:15.584Z,13.5
2016-10-02T00:20:25.580Z,13.5
2016-10-02T00:20:35.573Z,13.5
2016-10-02T00:20:45.569Z,13.5
2016-10-02T00:20:55.562Z,13.5
2016-10-02T00:21:05.558Z,13.5
2016-10-02T00:21:15.551Z,13.5
2016-10-02T00:21:25.546Z,13.5
2016-10-02T00:21:35.540Z,13.5
2016-10-02T00:21:45.536Z,13.5
2016-10-02T00:21:55.531Z,13.5
2016-10-02T00:22:05.527Z,13.5
2016-10-02T00:22:15.519Z,13.6
2016-10-02T00:22:25.515Z,13.5
2016-10-02T00:22:35.509Z,13.5
2016-10-02T00:22:45.504Z,13.5
2016-10-02T00:22:55.501Z,13.5
2016-10-02T00:23:05.500Z,13.5
2016-10-02T00:23:15.491Z,13.5
2016-10-02T00:23:25.484Z,13.4
2016-10-02T00:23:35.476Z,13.5
2016-10-02T00:23:45.473Z,13.4
2016-10-02T00:23:55.468Z,13.4
2016-10-02T00:24:05.462Z,13.4
2016-10-02T00:24:15.457Z,13.5
2016-10-02T00:24:25.453Z,13.5
2016-10-02T00:24:35.448Z,13.4
2016-10-02T00:24:45.441Z,13.5
2016-10-02T00:24:55.433Z,13.5
2016-10-02T00:25:05.430Z,13.5
2016-10-02T00:25:15.430Z,13.5
2016-10-02T00:25:25.417Z,13.5
2016-10-02T00:25:35.413Z,13.5
2016-10-02T00:25:45.416Z,13.5
2016-10-02T00:25:55.403Z,13.4
2016-10-02T00:26:05.399Z,13.5
2016-10-02T00:26:15.393Z,13.5
2016-10-02T00:26:25.388Z,13.5
2016-10-02T00:26:35.383Z,13.6
2016-10-02T00:26:45.377Z,13.6
2016-10-02T00:26:55.372Z,13.5
2016-10-02T00:27:05.367Z,13.6
2016-10-02T00:27:15.361Z,13.5
2016-10-02T00:27:25.356Z,13.5
2016-10-02T00:27:35.350Z,13.4
2016-10-02T00:27:45.344Z,13.4
2016-10-02T00:27:55.341Z,13.4
2016-10-02T00:28:05.335Z,13.4
2016-10-02T00:28:15.330Z,13.4
2016-10-02T00:28:25.325Z,13.4
2016-10-02T00:28:35.320Z,13.4
2016-10-02T00:28:45.313Z,13.4
2016-10-02T00:28:55.307Z,13.4
2016-10-02T00:29:05.303Z,13.4
2016-10-02T00:29:15.298Z,13.4
2016-10-02T00:29:25.292Z,13.3
2016-10-02T00:29:35.287Z,13.4
2016-10-02T00:29:45.284Z,13.4
2016-10-02T00:29:55.276Z,13.4
2016-10-02T00:30:05.271Z,13.4
2016-10-02T00:30:15.266Z,13.4
2016-10-02T00:30:25.261Z,13.4
2016-10-02T00:30:35.255Z,13.4
2016-10-02T00:30:45.251Z,13.4
2016-10-02T00:30:55.245Z,13.4
2016-10-02T00:31:05.241Z,13.4
2016-10-02T00:31:15.234Z,13.4
2016-10-02T00:31:25.228Z,13.3
2016-10-02T00:31:35.222Z,13.4
2016-10-02T00:31:45.217Z,13.4
2016-10-02T00:31:55.212Z,13.4
2016-10-02T00:32:05.205Z,13.4
2016-10-02T00:32:15.202Z,13.5
2016-10-02T00:32:25.198Z,13.4
2016-10-02T00:32:35.192Z,13.4
2016-10-02T00:32:45.188Z,13.4
2016-10-02T00:32:55.181Z,13.4
2016-10-02T00:33:05.176Z,13.4
2016-10-02T00:33:15.171Z,13.4
2016-10-02T00:33:25.165Z,13.4
2016-10-02T00:33:35.160Z,13.4
2016-10-02T00:33:45.155Z,13.4
2016-10-02T00:33:55.150Z,13.4
2016-10-02T00:34:05.145Z,13.4
2016-10-02T00:34:15.137Z,13.4
2016-10-02T00:34:25.133Z,13.4
2016-10-02T00:34:35.128Z,13.4
2016-10-02T00:34:45.123Z,13.4
2016-10-02T00:34:55.118Z,13.4
2016-10-02T00:35:05.113Z,13.4
2016-10-02T00:35:15.107Z,13.4
2016-10-02T00:35:25.103Z,13.4
2016-10-02T00:35:35.096Z,13.5
2016-10-02T00:35:45.090Z,13.4
2016-10-02T00:35:55.086Z,13.4
2016-10-02T00:36:05.080Z,13.4
2016-10-02T00:36:15.075Z,13.4
2016-10-02T00:36:25.071Z,13.5
2016-10-02T00:36:35.063Z,13.4
2016-10-02T00:36:45.059Z,13.5
2016-10-02T00:36:55.054Z,13.4
2016-10-02T00:37:05.049Z,13.4
2016-10-02T00:37:15.044Z,13.4
2016-10-02T00:37:25.038Z,13.4
2016-10-02T00:37:35.033Z,13.4
2016-10-02T00:37:45.027Z,13.4
2016-10-02T00:37:55.022Z,13.4
2016-10-02T00:38:05.017Z,13.4
2016-10-02T00:38:15.009Z,13.4
2016-10-02T00:38:25.005Z,13.4
2016-10-02T00:38:35.001Z,13.4
2016-10-02T00:38:44.994Z,13.4
2016-10-02T00:38:54.990Z,13.4
2016-10-02T00:39:04.986Z,13.4
2016-10-02T00:39:14.981Z,13.4
2016-10-02T00:39:24.975Z,13.4
2016-10-02T00:39:34.968Z,13.4
2016-10-02T00:39:44.965Z,13.4
2016-10-02T00:39:54.959Z,13.4
2016-10-02T00:40:04.953Z,13.4
2016-10-02T00:40:14.947Z,13.5
2016-10-02T00:40:24.943Z,13.5
2016-10-02T00:40:34.936Z,13.4
2016-10-02T00:40:44.932Z,13.4
2016-10-02T00:40:54.927Z,13.4
2016-10-02T00:41:04.920Z,13.4
2016-10-02T00:41:14.916Z,13.5
2016-10-02T00:41:24.910Z,13.4
2016-10-02T00:41:34.908Z,13.4
2016-10-02T00:41:44.901Z,13.4
2016-10-02T00:41:54.895Z,13.4
2016-10-02T00:42:04.890Z,13.4
2016-10-02T00:42:14.884Z,13.4
2016-10-02T00:42:24.878Z,13.4
2016-10-02T00:42:34.873Z,13.5
2016-10-02T00:42:44.867Z,13.4
2016-10-02T00:42:54.863Z,13.4
2016-10-02T00:43:04.857Z,13.4
2016-10-02T00:43:14.852Z,13.4
2016-10-02T00:43:24.847Z,13.4
2016-10-02T00:43:34.841Z,13.4
2016-10-02T00:43:44.837Z,13.4
2016-10-02T00:43:54.831Z,13.4
2016-10-02T00:44:04.825Z,13.4
2016-10-02T00:44:14.820Z,13.4
2016-10-02T00:44:24.814Z,13.4
2016-10-02T00:44:34.809Z,13.4
2016-10-02T00:44:44.804Z,13.5
2016-10-02T00:44:54.797Z,13.4
2016-10-02T00:45:04.793Z,13.4
2016-10-02T00:45:14.789Z,13.4
2016-10-02T00:45:24.783Z,13.4
2016-10-02T00:45:34.777Z,13.4
2016-10-02T00:45:44.773Z,13.4
2016-10-02T00:45:54.767Z,13.5
2016-10-02T00:46:04.762Z,13.5
2016-10-02T00:46:14.756Z,13.4
2016-10-02T00:46:24.751Z,13.5
2016-10-02T00:46:34.747Z,13.4
2016-10-02T00:46:44.740Z,13.4
2016-10-02T00:46:54.734Z,13.4
2016-10-02T00:47:04.728Z,13.4
2016-10-02T00:47:14.724Z,13.4
2016-10-02T00:47:24.720Z,13.4
2016-10-02T00:47:34.714Z,13.4
2016-10-02T00:47:44.708Z,13.4
2016-10-02T00:47:54.704Z,13.4
2016-10-02T00:48:04.697Z,13.5
2016-10-02T00:48:14.693Z,13.4
2016-10-02T00:48:24.688Z,13.5
2016-10-02T00:48:34.682Z,13.4
2016-10-02T00:48:44.681Z,13.5
2016-10-02T00:48:54.671Z,13.4
2016-10-02T00:49:04.664Z,13.5
2016-10-02T00:49:14.661Z,13.5
2016-10-02T00:49:24.655Z,13.6
2016-10-02T00:49:34.650Z,13.4
2016-10-02T00:49:44.645Z,13.5
2016-10-02T00:49:54.639Z,13.5
2016-10-02T00:50:04.640Z,13.6
2016-10-02T00:50:14.629Z,13.5
2016-10-02T00:50:24.623Z,13.5
2016-10-02T00:50:34.621Z,13.4
2016-10-02T00:50:44.619Z,13.4
2016-10-02T00:50:54.608Z,13.5
2016-10-02T00:51:04.603Z,13.5
2016-10-02T00:51:14.596Z,13.4
2016-10-02T00:51:24.592Z,13.5
2016-10-02T00:51:34.586Z,13.5
2016-10-02T00:51:44.582Z,13.5
2016-10-02T00:51:54.581Z,13.5
2016-10-02T00:52:04.571Z,13.4
2016-10-02T00:52:14.565Z,13.4
2016-10-02T00:52:24.560Z,13.5
2016-10-02T00:52:34.555Z,13.5
2016-10-02T00:52:44.551Z,13.4
2016-10-02T00:52:54.544Z,13.4
2016-10-02T00:53:04.539Z,13.5
2016-10-02T00:53:14.533Z,13.4
2016-10-02T00:53:24.527Z,13.4
2016-10-02T00:53:34.522Z,13.5
2016-10-02T00:53:44.517Z,13.3
2016-10-02T00:53:54.511Z,13.4
2016-10-02T00:54:04.508Z,13.4
2016-10-02T00:54:14.501Z,13.4
2016-10-02T00:54:24.497Z,13.4
2016-10-02T00:54:34.491Z,13.5
2016-10-02T00:54:44.485Z,13.4
2016-10-02T00:54:54.480Z,13.5
2016-10-02T00:55:04.475Z,13.4
2016-10-02T00:55:14.469Z,13.4
2016-10-02T00:55:24.465Z,13.5
2016-10-02T00:55:34.458Z,13.4
2016-10-02T00:55:44.453Z,13.4
2016-10-02T00:55:54.446Z,13.4
2016-10-02T00:56:04.443Z,13.5
2016-10-02T00:56:14.438Z,13.4
2016-10-02T00:56:24.433Z,13.4
2016-10-02T00:56:34.427Z,13.5
2016-10-02T00:56:44.420Z,13.5
2016-10-02T00:56:54.422Z,13.4
2016-10-02T00:57:04.415Z,13.4
2016-10-02T00:57:14.406Z,13.4
2016-10-02T00:57:24.399Z,13.4
2016-10-02T00:57:34.395Z,13.4
2016-10-02T00:57:44.389Z,13.4
2016-10-02T00:57:54.384Z,13.4
2016-10-02T00:58:04.379Z,13.4
2016-10-02T00:58:14.373Z,13.4
2016-10-02T00:58:24.369Z,13.5
2016-10-02T00:58:34.364Z,13.4
2016-10-02T00:58:44.356Z,13.5
2016-10-02T00:58:54.353Z,13.4
2016-10-02T00:59:04.348Z,13.5
2016-10-02T00:59:14.341Z,13.5
2016-10-02T00:59:24.337Z,13.4
2016-10-02T00:59:34.331Z,13.5
2016-10-02T00:59:44.326Z,13.4
2016-10-02T00:59:54.321Z,13.6
2016-10-02T01:00:04.315Z,13.5
2016-10-02T01:00:14.309Z,13.4
2016-10-02T01:00:24.305Z,13.5
2016-10-02T01:00:34.299Z,13.5
2016-10-02T01:00:44.294Z,13.4
2016-10-02T01:00:54.288Z,13.4
2016-10-02T01:01:04.284Z,13.4
2016-10-02T01:01:14.279Z,13.4
2016-10-02T01:01:24.273Z,13.4
2016-10-02T01:01:34.267Z,13.4
2016-10-02T01:01:44.263Z,13.4
2016-10-02T01:01:54.256Z,13.4
2016-10-02T01:02:04.252Z,13.4
2016-10-02T01:02:14.247Z,13.4
2016-10-02T01:02:24.241Z,13.4
2016-10-02T01:02:34.235Z,13.4
2016-10-02T01:02:44.230Z,13.4
2016-10-02T01:02:54.225Z,13.4
2016-10-02T01:03:04.220Z,13.4
2016-10-02T01:03:14.214Z,13.5
2016-10-02T01:03:24.209Z,13.5
2016-10-02T01:03:34.204Z,13.4
2016-10-02T01:03:44.198Z,13.5
2016-10-02T01:03:54.194Z,13.4
2016-10-02T01:04:04.188Z,13.5
2016-10-02T01:04:14.183Z,13.4
2016-10-02T01:04:24.178Z,13.4
2016-10-02T01:04:34.172Z,13.4
2016-10-02T01:04:44.168Z,13.5
2016-10-02T01:04:54.161Z,13.5
2016-10-02T01:05:04.156Z,13.4
2016-10-02T01:05:14.151Z,13.4
2016-10-02T01:05:24.146Z,13.4
2016-10-02T01:05:34.141Z,13.5
2016-10-02T01:05:44.136Z,13.5
2016-10-02T01:05:54.129Z,13.4
2016-10-02T01:06:04.123Z,13.5
2016-10-02T01:06:14.119Z,13.4
2016-10-02T01:06:24.114Z,13.5
2016-10-02T01:06:34.108Z,13.4
2016-10-02T01:06:44.104Z,13.4
2016-10-02T01:06:54.096Z,13.4
2016-10-02T01:07:04.098Z,13.4
2016-10-02T01:07:14.087Z,13.5
2016-10-02T01:07:24.083Z,13.4
2016-10-02T01:07:34.077Z,13.4
2016-10-02T01:07:44.071Z,13.4
2016-10-02T01:07:54.066Z,13.4
2016-10-02T01:08:04.059Z,13.4
2016-10-02T01:08:14.055Z,13.5
2016-10-02T01:08:24.051Z,13.4
2016-10-02T01:08:34.045Z,13.4
2016-10-02T01:08:44.040Z,13.4
2016-10-02T01:08:54.033Z,13.5
2016-10-02T01:09:04.028Z,13.4
2016-10-02T01:09:14.023Z,13.4
2016-10-02T01:09:24.017Z,13.4
2016-10-02T01:09:34.013Z,13.4
2016-10-02T01:09:44.008Z,13.4
2016-10-02T01:09:54.003Z,13.4
2016-10-02T01:10:03.998Z,13.4
2016-10-02T01:10:13.991Z,13.4
2016-10-02T01:10:23.986Z,13.5
2016-10-02T01:10:33.981Z,13.4
2016-10-02T01:10:43.977Z,13.4
2016-10-02T01:10:53.971Z,13.4
2016-10-02T01:11:03.965Z,13.4
2016-10-02T01:11:13.959Z,13.4
2016-10-02T01:11:23.955Z,13.4
2016-10-02T01:11:33.948Z,13.5
2016-10-02T01:11:43.944Z,13.4
2016-10-02T01:11:53.939Z,13.4
2016-10-02T01:12:03.933Z,13.4
2016-10-02T01:12:13.928Z,13.4
2016-10-02T01:12:23.923Z,13.4
2016-10-02T01:12:33.918Z,13.5
2016-10-02T01:12:43.912Z,13.4
2016-10-02T01:12:53.906Z,13.5
2016-10-02T01:13:03.901Z,13.4
2016-10-02T01:13:13.896Z,13.4
2016-10-02T01:13:23.891Z,13.4
2016-10-02T01:13:33.885Z,13.5
2016-10-02T01:13:43.880Z,13.4
2016-10-02T01:13:53.875Z,13.5
2016-10-02T01:14:03.870Z,13.4
2016-10-02T01:14:13.863Z,13.4
2016-10-02T01:14:23.860Z,13.4
2016-10-02T01:14:33.854Z,13.4
2016-10-02T01:14:43.848Z,13.4
2016-10-02T01:14:53.843Z,13.4
2016-10-02T01:15:03.838Z,13.4
2016-10-02T01:15:13.834Z,13.5
2016-10-02T01:15:23.828Z,13.4
2016-10-02T01:15:33.820Z,13.4
2016-10-02T01:15:43.816Z,13.4
2016-10-02T01:15:53.813Z,13.4
2016-10-02T01:16:03.807Z,13.4
2016-10-02T01:16:13.801Z,13.4
2016-10-02T01:16:23.795Z,13.4
2016-10-02T01:16:33.790Z,13.4
2016-10-02T01:16:43.783Z,13.4
2016-10-02T01:16:53.779Z,13.4
2016-10-02T01:17:03.774Z,13.5
2016-10-02T01:17:13.769Z,13.4
2016-10-02T01:17:23.763Z,13.4
2016-10-02T01:17:33.758Z,13.4
2016-10-02T01:17:43.754Z,13.5
2016-10-02T01:17:53.747Z,13.4
2016-10-02T01:18:03.741Z,13.5
2016-10-02T01:18:13.737Z,13.4
2016-10-02T01:18:23.731Z,13.4
2016-10-02T01:18:33.726Z,13.5
2016-10-02T01:18:43.726Z,13.4
2016-10-02T01:18:53.715Z,13.4
2016-10-02T01:19:03.709Z,13.5
2016-10-02T01:19:13.705Z,13.5
2016-10-02T01:19:23.699Z,13.4
2016-10-02T01:19:33.694Z,13.4
2016-10-02T01:19:43.688Z,13.5
2016-10-02T01:19:53.682Z,13.5
2016-10-02T01:20:03.677Z,13.4
2016-10-02T01:20:13.674Z,13.4
2016-10-02T01:20:23.668Z,13.4
2016-10-02T01:20:33.666Z,13.4
2016-10-02T01:20:43.657Z,13.4
2016-10-02T01:20:53.651Z,13.4
2016-10-02T01:21:03.646Z,13.5
2016-10-02T01:21:13.641Z,13.4
2016-10-02T01:21:23.635Z,13.4
2016-10-02T01:21:33.631Z,13.4
2016-10-02T01:21:43.625Z,13.4
2016-10-02T01:21:53.620Z,13.5
2016-10-02T01:22:03.614Z,13.4
2016-10-02T01:22:13.608Z,13.4
2016-10-02T01:22:23.602Z,13.4
2016-10-02T01:22:33.598Z,13.4
2016-10-02T01:22:43.593Z,13.3
2016-10-02T01:22:53.588Z,13.5
2016-10-02T01:23:03.583Z,13.4
2016-10-02T01:23:13.577Z,13.4
2016-10-02T01:23:23.571Z,13.4
2016-10-02T01:23:33.567Z,13.4
2016-10-02T01:23:43.560Z,13.4
2016-10-02T01:23:53.557Z,13.4
2016-10-02T01:24:03.551Z,13.4
2016-10-02T01:24:13.547Z,13.4
2016-10-02T01:24:23.540Z,13.4
2016-10-02T01:24:33.537Z,13.4
2016-10-02T01:24:43.529Z,13.4
2016-10-02T01:24:53.524Z,13.4
2016-10-02T01:25:03.519Z,13.3
2016-10-02T01:25:13.514Z,13.4
2016-10-02T01:25:23.508Z,13.3
2016-10-02T01:25:33.504Z,13.3
2016-10-02T01:25:43.499Z,13.4
2016-10-02T01:25:53.493Z,13.3
2016-10-02T01:26:03.487Z,13.3
2016-10-02T01:26:13.483Z,13.2
2016-10-02T01:26:23.476Z,13.3
2016-10-02T01:26:33.486Z,13.3
2016-10-02T01:26:43.465Z,13.3
2016-10-02T01:26:53.460Z,13.3
2016-10-02T01:27:03.455Z,13.3
2016-10-02T01:27:13.450Z,13.2
2016-10-02T01:27:23.444Z,13.3
2016-10-02T01:27:33.439Z,13.3
2016-10-02T01:27:43.433Z,13.3
2016-10-02T01:27:53.429Z,13.3
2016-10-02T01:28:03.423Z,13.3
2016-10-02T01:28:13.418Z,13.4
2016-10-02T01:28:23.413Z,13.4
2016-10-02T01:28:33.414Z,13.4
2016-10-02T01:28:43.402Z,13.4
2016-10-02T01:28:53.394Z,13.4
2016-10-02T01:29:03.391Z,13.3
2016-10-02T01:29:13.387Z,13.3
2016-10-02T01:29:23.380Z,13.3
2016-10-02T01:29:33.376Z,13.3
2016-10-02T01:29:43.371Z,13.3
2016-10-02T01:29:53.364Z,13.3
2016-10-02T01:30:03.361Z,13.4
2016-10-02T01:30:13.353Z,13.3
2016-10-02T01:30:23.349Z,13.3
2016-10-02T01:30:33.344Z,13.2
2016-10-02T01:30:43.338Z,13.2
2016-10-02T01:30:53.331Z,13.3
2016-10-02T01:31:03.327Z,13.2
2016-10-02T01:31:13.321Z,13.2
2016-10-02T01:31:23.317Z,13.3
2016-10-02T01:31:33.311Z,13.4
2016-10-02T01:31:43.310Z,13.3
2016-10-02T01:31:53.302Z,13.2
2016-10-02T01:32:03.296Z,13.3
2016-10-02T01:32:13.291Z,13.2
2016-10-02T01:32:23.284Z,13.2
2016-10-02T01:32:33.280Z,13.2
2016-10-02T01:32:43.275Z,13.2
2016-10-02T01:32:53.269Z,13.2
2016-10-02T01:33:03.262Z,13.2
2016-10-02T01:33:13.258Z,13.2
2016-10-02T01:33:23.252Z,13.2
2016-10-02T01:33:33.246Z,13.2
2016-10-02T01:33:43.243Z,13.3
2016-10-02T01:33:53.238Z,13.2
2016-10-02T01:34:03.232Z,13.2
2016-10-02T01:34:13.226Z,13.2
2016-10-02T01:34:23.221Z,13.2
2016-10-02T01:34:33.222Z,13.2
2016-10-02T01:34:43.211Z,13.2
2016-10-02T01:34:53.205Z,13.2
2016-10-02T01:35:03.201Z,13.1
2016-10-02T01:35:13.195Z,13.2
2016-10-02T01:35:23.188Z,13.1
2016-10-02T01:35:33.182Z,13.1
2016-10-02T01:35:43.178Z,13.1
2016-10-02T01:35:53.174Z,13.1
2016-10-02T01:36:03.169Z,13.1
2016-10-02T01:36:13.165Z,13.1
2016-10-02T01:36:23.159Z,13.1
2016-10-02T01:36:33.152Z,13.2
2016-10-02T01:36:43.147Z,13.2
2016-10-02T01:36:53.141Z,13.1
2016-10-02T01:37:03.137Z,13.2
2016-10-02T01:37:13.131Z,13.2
2016-10-02T01:37:23.125Z,13.2
2016-10-02T01:37:33.120Z,13.1
2016-10-02T01:37:43.114Z,13.2
2016-10-02T01:37:53.108Z,13.2
2016-10-02T01:38:03.105Z,13.2
2016-10-02T01:38:13.099Z,13.2
2016-10-02T01:38:23.094Z,13.2
2016-10-02T01:38:33.089Z,13.2
2016-10-02T01:38:43.083Z,13.1
2016-10-02T01:38:53.077Z,13.1
2016-10-02T01:39:03.073Z,13.2
2016-10-02T01:39:13.067Z,13.2
2016-10-02T01:39:23.062Z,13.2
2016-10-02T01:39:33.056Z,13.2
2016-10-02T01:39:43.050Z,13.1
2016-10-02T01:39:53.045Z,13.2
2016-10-02T01:40:03.039Z,13.2
2016-10-02T01:40:13.035Z,13.2
2016-10-02T01:40:23.031Z,13.2
2016-10-02T01:40:33.024Z,13.2
2016-10-02T01:40:43.020Z,13.2
2016-10-02T01:40:53.014Z,13.2
2016-10-02T01:41:03.009Z,13.2
2016-10-02T01:41:13.003Z,13.2
2016-10-02T01:41:22.997Z,13.2
2016-10-02T01:41:32.993Z,13.2
2016-10-02T01:41:42.987Z,13.2
2016-10-02T01:41:52.983Z,13.3
2016-10-02T01:42:02.980Z,13.2
2016-10-02T01:42:12.970Z,13.2
2016-10-02T01:42:22.965Z,13.2
2016-10-02T01:42:32.961Z,13.2
2016-10-02T01:42:42.956Z,13.2
2016-10-02T01:42:52.951Z,13.2
2016-10-02T01:43:02.945Z,13.1
2016-10-02T01:43:12.938Z,13.2
2016-10-02T01:43:22.934Z,13.1
2016-10-02T01:43:32.929Z,13.1
2016-10-02T01:43:42.922Z,13.2
2016-10-02T01:43:52.918Z,13.1
2016-10-02T01:44:02.912Z,13.1
2016-10-02T01:44:12.907Z,13.2
2016-10-02T01:44:22.901Z,13.2
2016-10-02T01:44:32.897Z,13.1
2016-10-02T01:44:42.892Z,13.1
2016-10-02T01:44:52.885Z,13.1
2016-10-02T01:45:02.881Z,13.1
2016-10-02T01:45:12.876Z,13.1
2016-10-02T01:45:22.870Z,13.1
2016-10-02T01:45:32.865Z,13.1
2016-10-02T01:45:42.858Z,13.2
2016-10-02T01:45:52.853Z,13.1
2016-10-02T01:46:02.849Z,13.1
2016-10-02T01:46:12.843Z,13.1
2016-10-02T01:46:22.838Z,13.1
2016-10-02T01:46:32.832Z,13.1
2016-10-02T01:46:42.827Z,13.1
2016-10-02T01:46:52.822Z,13.1
2016-10-02T01:47:02.817Z,13.1
2016-10-02T01:47:12.812Z,13.2
2016-10-02T01:47:22.807Z,13.2
2016-10-02T01:47:32.800Z,13.1
2016-10-02T01:47:42.795Z,13.2
2016-10-02T01:47:52.790Z,13.2
2016-10-02T01:48:02.785Z,13.2
2016-10-02T01:48:12.779Z,13.2
2016-10-02T01:48:22.774Z,13.2
2016-10-02T01:48:32.768Z,13.1
2016-10-02T01:48:42.765Z,13.1
2016-10-02T01:48:52.758Z,13.1
2016-10-02T01:49:02.753Z,13.1
2016-10-02T01:49:12.748Z,13.1
2016-10-02T01:49:22.742Z,13.1
2016-10-02T01:49:32.737Z,13.1
2016-10-02T01:49:42.732Z,13.1
2016-10-02T01:49:52.726Z,13.1
2016-10-02T01:50:02.721Z,13.1
2016-10-02T01:50:12.720Z,13.1
2016-10-02T01:50:22.713Z,13.1
2016-10-02T01:50:32.705Z,13.1
2016-10-02T01:50:42.699Z,13.1
2016-10-02T01:50:52.693Z,13.1
2016-10-02T01:51:02.690Z,13.1
2016-10-02T01:51:12.683Z,13.1
2016-10-02T01:51:22.679Z,13.2
2016-10-02T01:51:32.672Z,13.2
2016-10-02T01:51:42.668Z,13.2
2016-10-02T01:51:52.663Z,13.1
2016-10-02T01:52:02.657Z,13.2
2016-10-02T01:52:12.652Z,13.1
2016-10-02T01:52:22.647Z,13.1
2016-10-02T01:52:32.643Z,13.1
2016-10-02T01:52:42.635Z,13.1
2016-10-02T01:52:52.629Z,13.1
2016-10-02T01:53:02.625Z,13.2
2016-10-02T01:53:12.620Z,13.1
2016-10-02T01:53:22.613Z,13.1
2016-10-02T01:53:32.607Z,13.1
2016-10-02T01:53:42.605Z,13.1
2016-10-02T01:53:52.597Z,13.1
2016-10-02T01:54:02.592Z,13.1
2016-10-02T01:54:12.587Z,13.1
2016-10-02T01:54:22.583Z,13.1
2016-10-02T01:54:32.577Z,13.1
2016-10-02T01:54:42.571Z,13.1
2016-10-02T01:54:52.566Z,13.1
2016-10-02T01:55:02.562Z,13.1
2016-10-02T01:55:12.555Z,13.1
2016-10-02T01:55:22.550Z,13.1
2016-10-02T01:55:32.544Z,13.2
2016-10-02T01:55:42.539Z,13.1
2016-10-02T01:55:52.535Z,13
2016-10-02T01:56:02.528Z,13
2016-10-02T01:56:12.523Z,13.1
2016-10-02T01:56:22.519Z,13
2016-10-02T01:56:32.513Z,13
2016-10-02T01:56:42.507Z,13
2016-10-02T01:56:52.502Z,13
2016-10-02T01:57:02.498Z,13
2016-10-02T01:57:12.492Z,13
2016-10-02T01:57:22.485Z,13
2016-10-02T01:57:32.481Z,13
2016-10-02T01:57:42.475Z,13
2016-10-02T01:57:52.469Z,13
2016-10-02T01:58:02.466Z,13
2016-10-02T01:58:12.459Z,12.9
2016-10-02T01:58:22.454Z,13
2016-10-02T01:58:32.449Z,12.9
2016-10-02T01:58:42.443Z,13
2016-10-02T01:58:52.438Z,13.1
2016-10-02T01:59:02.433Z,13
2016-10-02T01:59:12.427Z,13.1
2016-10-02T01:59:22.423Z,13.1
2016-10-02T01:59:32.417Z,13
2016-10-02T01:59:42.412Z,13
2016-10-02T01:59:52.408Z,13
2016-10-02T02:00:02.399Z,13
2016-10-02T02:00:12.396Z,13
2016-10-02T02:00:22.390Z,13
2016-10-02T02:00:32.383Z,13
2016-10-02T02:00:42.379Z,13.1
2016-10-02T02:00:52.373Z,12.9
2016-10-02T02:01:02.369Z,12.9
2016-10-02T02:01:12.364Z,12.9
2016-10-02T02:01:22.357Z,13
2016-10-02T02:01:32.353Z,12.9
2016-10-02T02:01:42.348Z,13
2016-10-02T02:01:52.342Z,13.1
2016-10-02T02:02:02.337Z,12.9
2016-10-02T02:02:12.331Z,13
2016-10-02T02:02:22.325Z,12.9
2016-10-02T02:02:32.321Z,13
2016-10-02T02:02:42.315Z,12.9
2016-10-02T02:02:52.310Z,12.9
2016-10-02T02:03:02.306Z,12.9
2016-10-02T02:03:12.299Z,12.9
2016-10-02T02:03:22.293Z,12.9
2016-10-02T02:03:32.288Z,12.9
2016-10-02T02:03:42.284Z,12.9
2016-10-02T02:03:52.278Z,12.8
2016-10-02T02:04:02.274Z,12.9
2016-10-02T02:04:12.363Z,12.9
2016-10-02T02:04:22.263Z,12.9
2016-10-02T02:04:32.257Z,12.8
2016-10-02T02:04:42.252Z,12.8
2016-10-02T02:04:52.245Z,12.9
2016-10-02T02:05:02.240Z,12.9
2016-10-02T02:05:12.236Z,12.9
2016-10-02T02:05:22.230Z,12.9
2016-10-02T02:05:32.225Z,12.9
2016-10-02T02:05:42.220Z,12.9
2016-10-02T02:05:52.214Z,12.9
2016-10-02T02:06:02.209Z,12.9
2016-10-02T02:06:12.203Z,12.8
2016-10-02T02:06:22.197Z,12.8
2016-10-02T02:06:32.192Z,12.8
2016-10-02T02:06:42.186Z,12.9
2016-10-02T02:06:52.182Z,12.9
2016-10-02T02:07:02.177Z,12.8
2016-10-02T02:07:12.171Z,12.9
2016-10-02T02:07:22.165Z,12.9
2016-10-02T02:07:32.160Z,12.8
2016-10-02T02:07:42.155Z,12.9
2016-10-02T02:07:52.150Z,12.8
2016-10-02T02:08:02.143Z,12.9
2016-10-02T02:08:12.140Z,12.9
2016-10-02T02:08:22.135Z,12.8
2016-10-02T02:08:32.128Z,12.8
2016-10-02T02:08:42.122Z,12.9
2016-10-02T02:08:52.115Z,12.8
2016-10-02T02:09:02.117Z,12.9
2016-10-02T02:09:12.109Z,12.8
2016-10-02T02:09:22.103Z,12.9
2016-10-02T02:09:32.097Z,12.8
2016-10-02T02:09:42.092Z,12.9
2016-10-02T02:09:52.085Z,12.8
2016-10-02T02:10:02.081Z,12.8
2016-10-02T02:10:12.074Z,12.9
2016-10-02T02:10:22.070Z,12.8
2016-10-02T02:10:32.064Z,12.8
2016-10-02T02:10:42.059Z,12.8
2016-10-02T02:10:52.054Z,12.8
2016-10-02T02:11:02.049Z,12.8
2016-10-02T02:11:12.042Z,12.8
2016-10-02T02:11:22.039Z,12.9
2016-10-02T02:11:32.031Z,12.8
2016-10-02T02:11:42.027Z,12.9
2016-10-02T02:11:52.022Z,12.9
2016-10-02T02:12:02.016Z,12.8
2016-10-02T02:12:12.011Z,12.8
2016-10-02T02:12:22.006Z,12.9
2016-10-02T02:12:32.001Z,12.9
2016-10-02T02:12:41.995Z,12.8
2016-10-02T02:12:51.989Z,12.9
2016-10-02T02:13:01.985Z,12.9
2016-10-02T02:13:11.979Z,12.9
2016-10-02T02:13:21.972Z,12.9